Portada
METAR-TAF:

METAR-TAF

Aeroports :

Dakar, Senegal

latitud: 14-44N, longitud: 017-30W, altitud: 27 m

Observació

L'informe es va fer fa 1 hora i 12 minuts, a les 14:00 UTC
Vent calma
Temperatura 31°C
Humitat 66%
Pressió 1011 hPa
Visibilitat 10 km o més
sense núvols per sota de 1500 mi sense presència de cumulonimbus.

METAR: GOOY 171400Z 00000KT CAVOK 31/24 Q1011

Hora: 15:12 (15:12 UTC)

Pronòstic

L'informe es va fer fa 3 hores i 42 minuts, a les 11:30 UTC
Pronòstic vàlid del 17 a les 12 UTC al 18 a les 18 UTC
Vent 8 kt del Oest
Visibilitat 10 km o més
Núvols disperses a una alçada de 1200 ft

TAF: GOOY 171130Z 1712/1818 28008KT 9999 SCT012

Observacions i pronòstics meteorològics de més de 4000 aeroports (METAR i TAF).

Les estacions disponibles són els punts grocs i vermells al mapa.

Posi el ratolí al punt desitjat per veure el nom de l'estació.

Feu clic per veure les observacions i els pronòstics meteorològics.

Per canviar el mapa: feu clic els botons verds amb una creu de color negre per apropar; al botó verd amb un guió per allunyar la imatge; o en les fletxes verdes per a mapes adjacents.


METAR-TAF: